Timeline UpdatesTrip UpdatesNews PostsPvt Posts♥♥Travel TipsAdmin PostsConv PostsFollowed PostsChat RequestsBlog PostsPNR Posts

Disclaimer
Search
 
 
Thu Oct 23, 2014 04:34:13 ISTHomeTrainsΣChainsAtlasPNRForumGalleryNewsFAQTripsMembersLoginFeedback
No Recent News for this Train
Other Trains in the News **new
Latest...
revised
Fri Jan 25, 2013 (07:00AM)
⇐ Return Journey: Train# 12025-Rev

12026⇒12026-Rev/Secunderabad-Pune Shatabdi Express

TRAIN IS CANCELLED
Change Departure Station:
Change Arrival Station:
Post a Train Travel TipPost a Train Travel Tip **new
Post a Comment/Question/Picture/VideoPost a Comment/Question/Picture/Video
Inaugural Run
Sun Nov 13, 2011
Pantry/Catering
✕ NO Pantry Car
✓ Catering Avbl
Fare includes Catering viz: 1. Water Bottle; 2. Evening Snacks;...
Read more...
3. Dinner
RSA - Rake Sharing
NO RSA. Runs with ICF rakes
Rake/Coach Composition
LOCO-EOG- C7-C6-C5-E1-C4-C3-C2-C1-EOG ; ICF Rake''; 12025/12026 Pune – Secunderabad Shatabdi Express will be augmented by Two AC chair cars from 16.9.2012 Ex Pune & Secunderabad.
Loco
WDM-3D/WDM-3A of Pune Shed.
News    PNR    Forum    Time-Table    Availability    Fare Chart    Map    Arr/Dep History    Trips    Gallery    ΣChains    X/O    Timeline    
Travel Time: 4h 52m    5 halts    Distance: 334 km    Avg Speed: 68 km/hr
Type: Shatabdi
Zone: CR/Central
Departs @ 14:45
Platform# 4
SM WTFS
Secunderabad Junction/SC 
Arrives @ 19:37
Platform# 1
SM WTFS
Solapur/SUR 

5 halts. 48 intermediate Stations between Secunderabad Junction and Solapur

Hide intermediate Stations  

#TrkCodeStation NameX/OArrivesAvgDepartsAvgHaltPFDay#KmSpeedElevZoneAddress
1/==/SCSecunderabad Junction (10)»-14:45-410.032539mSCRSecunderabad 500003, Telangana
1.1/==/JETJames Street (2)  14:48-14:48-  11.7 32523mSCRSecunderabad, Telangana
1.2/==/SJVPSanjivaiah Park (2)  14:50-14:50-  12.8 32523mSCRHyderabad, Telangana
2/==/BMTBegumpet (2)14:54-14:55-1m214.890531mSCRHyderabad, Telangana
2.1/==/NCHSNature Cure Hospital (2)  14:56-14:56-  15.9 90533mSCRHyderabad, Telangana
2.2/==/FNBFatehnagar (2)  14:57-14:57-  17.1 90542mSCRHyderabad, Telangana
2.3/==/SNFSanathnagar (3)  14:57-14:57-  18.4 90547mSCRHyderabad, Telangana
2.4/==/BTNRBharat Nagar (3)  14:58-14:58-  19.7 90548mSCRHyderabad, Telangana
2.5/==/BRBDBorabanda (2)  15:00-15:00-  112.0 90559mSCRHyderabad, Telangana
2.6/==/HTCYHi-Tech City (2)  15:02-15:02-  114.9 90568mSCRHyderabad, Telangana
2.7/==/HFZHafizpet (2)  15:04-15:04-  117.8 90590mSCRHyderabad, Telangana
2.8/==/CDNRChandanagar (2)  15:06-15:06-  121.2 90572mSCRHyderabad, Telangana
2.9/==/LPILingampalli (6)  15:07-15:07-  123.0 90558mSCRRangareddy Dist., Telangana
2.10/==/NPLNagalapalle (2)  15:14-15:14-  132.7 90561mSCRMedak Dist., Telangana
2.11/==/SKPShankarpalli (2)  15:21-15:21-  143.7 90574mSCRRangareddy Dist., Telangana
2.12/==/RPKRavulapalli Kalan (2)  15:24-15:24-  149.0 90582mSCRRangareddy Dist., Telangana
2.13/==/GGDGullaguda  15:28-15:28-  155.2 90599mSCRRangareddy Dist., Telangana
2.14/==/CTFChitgidda  15:33-15:33-  162.1 90607mSCRRangareddy Dist., Telangana
3/==/VKBVikarabad Junction (3)15:40-15:41-1m2172.587633mSCRRangareddy Dist., Telangana
3.1/==/GDQGodamgura (2)  15:47-15:47-  181.6 87590mSCRRangareddy Dist., Telangana
3.2/==/MWYMailaram (2)  15:52-15:52-  188.3 87547mSCRRangareddy District, Telangana
3.3/==/DRRDharur  15:56-15:56-  194.4 87513mSCRRangareddy District, Telangana
3.4/==/RMYRukmapur (2)  16:03-16:03-  1103.8 87465mSCRRangareddy Dist, Telangana
4/==/TDUTandur (3)16:10-16:11-1m21114.659457mSCRTandur, Telangana
4.1/==/MVHMantatti (2)  16:20-16:20-  1123.2 59443mSCRMantatte Tandur, Telangana
4.2/==/NAWNawandgi (2)  16:29-16:29-  1132.1 59437mSCRTandur, Telangana
4.3/==/KQTKurgunta  16:36-16:36-  1139.7 59421mSCRGulbarga, Karnataka
4.4/==/SEMSedam (3)  16:45-16:45-  1148.1 59420mSCRSedam ph.no 08441 276066, Karnataka
4.5/==/MQRMalkhaid Road (2)  16:57-16:57-  1160.2 59431mSCRMalkhaid Road, Karnataka
4.6/==/CTChittapur (3)  17:07-17:07-  1169.9 59427mSCRChitapur, Karnataka
4.7/==/SUHSulehalli (1)  17:13-17:13-  1175.9 59447mSCRState Highway 51, Karnataka
5/==/WADIWadi Junction (4)17:22-17:25-3m21184.874431mCRWadi, Karnataka
5.1%==%SDBShahabad (3)  17:33-17:33-  1194.9 74403mCRShahabad, Karnataka
5.2%==%MRMartur  17:42-17:42-  1205.2 74427mCRGulbarga, Karnataka
5.3%==%HQRHirenanduru  17:48-17:48-  1212.8 74469mCRNandoor K, Karnataka
6%==!GRGulbarga (4)  17:55-17:56-1m11221.667458mCRGulbarga 585101, Karnataka
6.1!==!BBDBablad  18:01-18:01-  1227.0 67461mCRGulburga, Karnataka
6.2!==!SVGSawalgi  18:07-18:07-  1234.4 67462mCRGulburga, Karnataka
6.3!==!HHDHunsihadgil  18:14-18:14-  1241.8 67479mCRGulburga, Karnataka
6.4!==!GURGanagapur Road  18:20-18:20-  1248.0 67445mCRDist Gulbarga, Karnataka
6.5!==!GDGNGaudgaon  18:25-18:25-  1254.2 67444mCRBhognalli Sindnoor Rd, Karnataka
6.6!==!KUIKulali  18:32-18:32-  1261.5 67455mCRBhognalli - Ravoor - Dudhani Rd, Karnataka
6.7!==!DUDDudhani (2)  18:40-18:40-  1271.0 67457mCRSolapur, Maharashtra
6.8!==!BOTBoroti  18:53-18:53-  1285.0 67466mCRSolapur, Maharashtra
6.9!==!NGSNagansur  19:01-19:01-  1293.5 67487mCRSolapur, Maharashtra
6.10!==!AKORAkalkot Road (2)  19:05-19:05-  1298.9 67456mCRDist Solapur, Maharashtra
6.11!==|TLTTilati  19:15-19:15-  1309.9 67454mCRAkalkot Road, Maharashtra
6.12!==|HGHotgi Junction (3)  19:24-19:24-  1319.3 67473mCRHotgi 413215, Maharashtra
6.13|==|TKWDTikekarwadi (2)  19:31-19:31-  1327.3 67477mCRSolapur, Maharashtra
7|==|SURSolapur (5)•  19:37-19:40-3m11334.275461mCRSolapur 413001, Maharashtra
7.1|==|BALEBale (2)  19:45-19:45-  1340.6 75452mCRSolapur, Maharashtra
7.2|==|PKPakni (2)  19:53-19:53-  1350.6 75451mCRPakni, Maharashtra
7.3|==|MVEMundhewadi (2)  20:00-20:00-  1359.5 75462mCRMundhewadi, Maharashtra
7.4|==!MOMohol (2)  20:07-20:07-  1367.5 75458mCRSolapur, Maharashtra
7.5!==!MKPTMalikpeth  20:14-20:14-  1376.7 75464mCRState Highway 74, Maharashtra
7.6!==!AAGAngar  20:20-20:20-  1383.7 75470mCRAnagar Railway Station, Maharashtra
7.7!==!WKAVakav (1)  20:25-20:25-  1390.1 75470mCRSolapur, Maharashtra
7.8!==!MAMadha (2)  20:30-20:30-  1397.3 75481mCRSolapur, Maharashtra
7.9!==!WDSWadsinge  20:37-20:37-  1405.0 75493mCRWadsinge, Maharashtra
7.10!==!KWVKurduvadi Junction (4)  20:43-20:43-  1413.2 75516mCRKurduvadi Dist-Solapur, Maharashtra
7.11!==!DHSDhavalas (2)  20:51-20:51-  1422.8 75543mCRDhavalas, Maharashtra
7.12!==!KEMKem (2)  20:58-20:58-  1431.3 75548mCRKem, Maharashtra
7.13!==!BLNIBhalwani (2)  21:04-21:04-  1439.6 75521mCRBhalwani, Maharashtra
7.14!==!JEURJeur (1)  21:11-21:11-  1447.5 75526mCRJeur, Maharashtra
7.15!==!PPJPophlaj  21:18-21:18-  1456.1 75529mCRJeur - Kettur Road, Maharashtra
7.16!==!WSBWashimbe (1)  21:25-21:25-  1465.5 75529mCRWashimbe, Maharashtra
7.17!==!PRWDParewadi (2)  21:31-21:31-  1472.7 75515mCRIndapur, Maharashtra
7.18!==!JNTRJinti Road  21:38-21:38-  1481.9 75530mCRDaund, Maharashtra
7.19!==%BGVNBhigwan (2)  21:47-21:47-  1493.5 75509mCRDaund, Maharashtra
7.20%==%MLMMalthan  21:55-21:55-  1502.5 75524mCRDaund, Maharashtra
7.21%==%BRBBoribial  22:01-22:01-  1510.9 75527mCRNew Daund, Maharashtra
7.22%==%DDDaund Junction (7)  22:10-22:10-  1521.2 75521mCRNew Daund Dist. Pune 413801, Maharashtra
7.23%==%DDAMDaund Marshalling Yard  22:10-22:10-  1521.8 75517mCROld Daund, Maharashtra
7.24%==%DDJADaund Goods Yard (2)  22:11-22:11-  1522.8 75515mCRNew Daund, Maharashtra
7.25%==%DDAPDaund Patas Road  22:12-22:12-  1523.9 75519mCRDaund, Maharashtra
7.26%==%PAAPatas (3)  22:19-22:19-  1532.8 75532mCRDist. Pune 412219, Maharashtra
7.27%==%KDTNKadethan  22:23-22:23-  1537.6 75532mCRDaund, Maharashtra
7.28%==%KDGKedgaon (2)  22:27-22:27-  1542.7 75544mCRDist. Pune 412203, Maharashtra
7.29%==%KTTKhutbav (2)  22:32-22:32-  1549.1 75558mCRShirur-Daund Rd Daund, Maharashtra
7.30%==%YTYevat (2)  22:37-22:37-  1555.3 75558mCRDist. Pune 412214, Maharashtra
7.31%==%URIUruli (2)  22:47-22:47-  1568.0 75553mCRDist. Pune 412202, Maharashtra
7.32%==%LONILoni (2)  22:57-22:57-  1580.3 75541mCRPune 412201, Maharashtra
7.33%==%MJBKManjari Budruk (2)  23:01-23:01-  1586.0 75550mCRPune 412307, Maharashtra
7.34%==%HDPHadapsar (3)  23:05-23:05-  1590.9 75554mCRPune 411028, Maharashtra
7.35%==/GPRWGhorpuri West (2)  23:08-23:08-  1594.5 75552mCRPune 411001, Maharashtra
8/==/PUNEPune Junction (6)  23:10--21596.7-556mCRPune 411001, Maharashtra
Scroll to Top
Scroll to Bottom